sensor_id;sensor_type;location;lat;lon;timestamp;P1;durP1;ratioP1;P2;durP2;ratioP2
78740;SDS011;68062;48.726;9.370;2023-05-16T00:00:30;11.23;;;8.40;;
78740;SDS011;68062;48.726;9.370;2023-05-16T00:03:00;8.57;;;7.90;;
78740;SDS011;68062;48.726;9.370;2023-05-16T00:05:27;11.03;;;9.00;;
78740;SDS011;68062;48.726;9.370;2023-05-16T00:07:55;9.57;;;8.80;;
78740;SDS011;68062;48.726;9.370;2023-05-16T00:10:22;11.37;;;8.57;;
78740;SDS011;68062;48.726;9.370;2023-05-16T00:12:48;12.10;;;8.90;;
78740;SDS011;68062;48.726;9.370;2023-05-16T00:15:16;9.47;;;8.60;;
78740;SDS011;68062;48.726;9.370;2023-05-16T00:17:45;12.63;;;9.83;;
78740;SDS011;68062;48.726;9.370;2023-05-16T00:20:11;14.20;;;10.30;;
78740;SDS011;68062;48.726;9.370;2023-05-16T00:22:43;11.20;;;9.60;;
78740;SDS011;68062;48.726;9.370;2023-05-16T00:25:11;11.40;;;9.33;;
78740;SDS011;68062;48.726;9.370;2023-05-16T00:27:38;13.00;;;11.20;;
78740;SDS011;68062;48.726;9.370;2023-05-16T00:30:05;13.10;;;10.17;;
78740;SDS011;68062;48.726;9.370;2023-05-16T00:32:35;11.93;;;10.17;;
78740;SDS011;68062;48.726;9.370;2023-05-16T00:35:03;11.80;;;11.23;;
78740;SDS011;68062;48.726;9.370;2023-05-16T00:37:30;13.67;;;11.00;;
78740;SDS011;68062;48.726;9.370;2023-05-16T00:39:57;15.97;;;11.70;;
78740;SDS011;68062;48.726;9.370;2023-05-16T00:42:25;13.17;;;10.40;;
78740;SDS011;68062;48.726;9.370;2023-05-16T00:44:52;15.87;;;12.00;;
78740;SDS011;68062;48.726;9.370;2023-05-16T00:47:19;14.37;;;12.40;;
78740;SDS011;68062;48.726;9.370;2023-05-16T00:49:46;13.93;;;11.10;;
78740;SDS011;68062;48.726;9.370;2023-05-16T00:52:14;15.10;;;11.10;;
78740;SDS011;68062;48.726;9.370;2023-05-16T00:54:41;18.30;;;12.67;;
78740;SDS011;68062;48.726;9.370;2023-05-16T00:57:08;17.33;;;11.93;;
78740;SDS011;68062;48.726;9.370;2023-05-16T00:59:37;16.50;;;12.10;;
78740;SDS011;68062;48.726;9.370;2023-05-16T01:02:04;14.63;;;11.70;;
78740;SDS011;68062;48.726;9.370;2023-05-16T01:04:30;17.10;;;14.03;;
78740;SDS011;68062;48.726;9.370;2023-05-16T01:06:59;22.00;;;16.17;;
78740;SDS011;68062;48.726;9.370;2023-05-16T01:09:26;18.27;;;14.00;;
78740;SDS011;68062;48.726;9.370;2023-05-16T01:11:55;22.97;;;15.57;;
78740;SDS011;68062;48.726;9.370;2023-05-16T01:14:33;19.13;;;14.00;;
78740;SDS011;68062;48.726;9.370;2023-05-16T01:17:12;22.00;;;15.00;;
78740;SDS011;68062;48.726;9.370;2023-05-16T01:19:54;17.20;;;13.93;;
78740;SDS011;68062;48.726;9.370;2023-05-16T01:22:31;16.40;;;12.73;;
78740;SDS011;68062;48.726;9.370;2023-05-16T01:25:16;18.50;;;12.27;;
78740;SDS011;68062;48.726;9.370;2023-05-16T01:27:53;19.83;;;12.73;;
78740;SDS011;68062;48.726;9.370;2023-05-16T01:30:22;14.13;;;11.80;;
78740;SDS011;68062;48.726;9.370;2023-05-16T01:32:49;13.33;;;11.33;;
78740;SDS011;68062;48.726;9.370;2023-05-16T01:35:16;18.83;;;12.93;;
78740;SDS011;68062;48.726;9.370;2023-05-16T01:37:45;16.20;;;12.40;;
78740;SDS011;68062;48.726;9.370;2023-05-16T01:40:31;15.83;;;12.83;;
78740;SDS011;68062;48.726;9.370;2023-05-16T01:43:04;20.47;;;13.40;;
78740;SDS011;68062;48.726;9.370;2023-05-16T01:45:36;17.30;;;12.60;;
78740;SDS011;68062;48.726;9.370;2023-05-16T01:48:12;17.57;;;13.40;;
78740;SDS011;68062;48.726;9.370;2023-05-16T01:50:43;18.33;;;13.00;;
78740;SDS011;68062;48.726;9.370;2023-05-16T01:53:17;18.83;;;13.27;;
78740;SDS011;68062;48.726;9.370;2023-05-16T01:55:48;20.70;;;14.50;;
78740;SDS011;68062;48.726;9.370;2023-05-16T01:58:19;19.13;;;13.03;;
78740;SDS011;68062;48.726;9.370;2023-05-16T02:00:46;15.43;;;12.60;;
78740;SDS011;68062;48.726;9.370;2023-05-16T02:03:13;14.20;;;10.90;;
78740;SDS011;68062;48.726;9.370;2023-05-16T02:05:39;16.40;;;12.10;;
78740;SDS011;68062;48.726;9.370;2023-05-16T02:08:09;13.33;;;11.37;;
78740;SDS011;68062;48.726;9.370;2023-05-16T02:10:35;16.03;;;12.27;;
78740;SDS011;68062;48.726;9.370;2023-05-16T02:13:04;11.93;;;10.30;;
78740;SDS011;68062;48.726;9.370;2023-05-16T02:15:32;14.03;;;11.07;;
78740;SDS011;68062;48.726;9.370;2023-05-16T02:18:00;13.57;;;10.90;;
78740;SDS011;68062;48.726;9.370;2023-05-16T02:20:27;15.27;;;12.20;;
78740;SDS011;68062;48.726;9.370;2023-05-16T02:22:54;13.80;;;11.10;;
78740;SDS011;68062;48.726;9.370;2023-05-16T02:25:21;15.43;;;11.33;;
78740;SDS011;68062;48.726;9.370;2023-05-16T02:27:47;14.60;;;12.10;;
78740;SDS011;68062;48.726;9.370;2023-05-16T02:30:15;14.27;;;11.57;;
78740;SDS011;68062;48.726;9.370;2023-05-16T02:32:45;15.33;;;12.33;;
78740;SDS011;68062;48.726;9.370;2023-05-16T02:35:13;15.63;;;11.70;;
78740;SDS011;68062;48.726;9.370;2023-05-16T02:37:42;15.97;;;12.40;;
78740;SDS011;68062;48.726;9.370;2023-05-16T02:40:09;13.63;;;10.60;;
78740;SDS011;68062;48.726;9.370;2023-05-16T02:42:36;13.57;;;10.73;;
78740;SDS011;68062;48.726;9.370;2023-05-16T02:45:03;14.40;;;10.73;;
78740;SDS011;68062;48.726;9.370;2023-05-16T02:47:31;14.43;;;11.73;;
78740;SDS011;68062;48.726;9.370;2023-05-16T02:50:01;16.53;;;12.03;;
78740;SDS011;68062;48.726;9.370;2023-05-16T02:52:28;14.73;;;10.13;;
78740;SDS011;68062;48.726;9.370;2023-05-16T02:54:54;13.50;;;10.50;;
78740;SDS011;68062;48.726;9.370;2023-05-16T02:57:21;13.40;;;11.07;;
78740;SDS011;68062;48.726;9.370;2023-05-16T02:59:48;14.43;;;11.33;;
78740;SDS011;68062;48.726;9.370;2023-05-16T03:02:15;13.07;;;10.90;;
78740;SDS011;68062;48.726;9.370;2023-05-16T03:04:42;17.33;;;12.03;;
78740;SDS011;68062;48.726;9.370;2023-05-16T03:07:10;14.07;;;10.90;;
78740;SDS011;68062;48.726;9.370;2023-05-16T03:09:37;12.30;;;11.10;;
78740;SDS011;68062;48.726;9.370;2023-05-16T03:12:04;16.30;;;12.87;;
78740;SDS011;68062;48.726;9.370;2023-05-16T03:14:33;13.80;;;10.87;;
78740;SDS011;68062;48.726;9.370;2023-05-16T03:17:01;16.27;;;10.97;;
78740;SDS011;68062;48.726;9.370;2023-05-16T03:19:29;15.47;;;11.50;;
78740;SDS011;68062;48.726;9.370;2023-05-16T03:21:56;13.50;;;11.73;;
78740;SDS011;68062;48.726;9.370;2023-05-16T03:24:24;14.10;;;10.37;;
78740;SDS011;68062;48.726;9.370;2023-05-16T03:26:51;12.73;;;10.17;;
78740;SDS011;68062;48.726;9.370;2023-05-16T03:29:19;18.70;;;11.30;;
78740;SDS011;68062;48.726;9.370;2023-05-16T03:31:46;11.60;;;9.63;;
78740;SDS011;68062;48.726;9.370;2023-05-16T03:34:13;15.47;;;11.70;;
78740;SDS011;68062;48.726;9.370;2023-05-16T03:36:40;15.23;;;12.00;;
78740;SDS011;68062;48.726;9.370;2023-05-16T03:39:07;13.33;;;10.43;;
78740;SDS011;68062;48.726;9.370;2023-05-16T03:41:35;14.33;;;10.60;;
78740;SDS011;68062;48.726;9.370;2023-05-16T03:44:01;12.80;;;10.87;;
78740;SDS011;68062;48.726;9.370;2023-05-16T03:46:28;12.27;;;9.87;;
78740;SDS011;68062;48.726;9.370;2023-05-16T03:48:55;12.47;;;11.07;;
78740;SDS011;68062;48.726;9.370;2023-05-16T03:51:21;14.60;;;10.57;;
78740;SDS011;68062;48.726;9.370;2023-05-16T03:53:48;13.20;;;10.33;;
78740;SDS011;68062;48.726;9.370;2023-05-16T03:56:14;15.73;;;11.33;;
78740;SDS011;68062;48.726;9.370;2023-05-16T03:58:42;14.13;;;11.40;;
78740;SDS011;68062;48.726;9.370;2023-05-16T04:01:09;12.40;;;11.17;;
78740;SDS011;68062;48.726;9.370;2023-05-16T04:03:36;13.53;;;11.17;;
78740;SDS011;68062;48.726;9.370;2023-05-16T04:06:03;14.40;;;11.10;;
78740;SDS011;68062;48.726;9.370;2023-05-16T04:08:31;18.83;;;11.23;;
78740;SDS011;68062;48.726;9.370;2023-05-16T04:10:58;14.27;;;11.60;;
78740;SDS011;68062;48.726;9.370;2023-05-16T04:13:25;15.23;;;11.93;;
78740;SDS011;68062;48.726;9.370;2023-05-16T04:15:53;12.87;;;10.50;;
78740;SDS011;68062;48.726;9.370;2023-05-16T04:18:19;12.03;;;9.93;;
78740;SDS011;68062;48.726;9.370;2023-05-16T04:20:46;14.13;;;10.80;;
78740;SDS011;68062;48.726;9.370;2023-05-16T04:23:12;12.40;;;9.80;;
78740;SDS011;68062;48.726;9.370;2023-05-16T04:25:39;14.13;;;10.90;;
78740;SDS011;68062;48.726;9.370;2023-05-16T04:28:07;11.90;;;10.37;;
78740;SDS011;68062;48.726;9.370;2023-05-16T04:30:34;13.10;;;10.23;;
78740;SDS011;68062;48.726;9.370;2023-05-16T04:33:02;13.60;;;10.50;;
78740;SDS011;68062;48.726;9.370;2023-05-16T04:35:29;11.63;;;9.43;;
78740;SDS011;68062;48.726;9.370;2023-05-16T04:37:57;11.50;;;9.73;;
78740;SDS011;68062;48.726;9.370;2023-05-16T04:40:24;11.97;;;10.10;;
78740;SDS011;68062;48.726;9.370;2023-05-16T04:42:51;12.83;;;9.30;;
78740;SDS011;68062;48.726;9.370;2023-05-16T04:45:19;13.80;;;9.93;;
78740;SDS011;68062;48.726;9.370;2023-05-16T04:47:45;12.33;;;10.30;;
78740;SDS011;68062;48.726;9.370;2023-05-16T04:50:14;13.13;;;10.20;;
78740;SDS011;68062;48.726;9.370;2023-05-16T04:52:42;13.40;;;11.53;;
78740;SDS011;68062;48.726;9.370;2023-05-16T04:55:09;14.93;;;11.87;;
78740;SDS011;68062;48.726;9.370;2023-05-16T04:57:36;20.63;;;13.73;;
78740;SDS011;68062;48.726;9.370;2023-05-16T05:00:05;15.50;;;12.53;;
78740;SDS011;68062;48.726;9.370;2023-05-16T05:02:34;16.70;;;13.50;;
78740;SDS011;68062;48.726;9.370;2023-05-16T05:05:03;19.63;;;14.70;;
78740;SDS011;68062;48.726;9.370;2023-05-16T05:07:32;16.20;;;12.57;;
78740;SDS011;68062;48.726;9.370;2023-05-16T05:09:59;14.87;;;11.70;;
78740;SDS011;68062;48.726;9.370;2023-05-16T05:12:25;19.50;;;14.30;;
78740;SDS011;68062;48.726;9.370;2023-05-16T05:14:53;19.90;;;14.50;;
78740;SDS011;68062;48.726;9.370;2023-05-16T05:17:19;16.77;;;13.30;;
78740;SDS011;68062;48.726;9.370;2023-05-16T05:19:46;17.33;;;13.07;;
78740;SDS011;68062;48.726;9.370;2023-05-16T05:22:13;17.73;;;12.77;;
78740;SDS011;68062;48.726;9.370;2023-05-16T05:24:41;14.63;;;12.30;;
78740;SDS011;68062;48.726;9.370;2023-05-16T05:27:08;17.77;;;12.00;;
78740;SDS011;68062;48.726;9.370;2023-05-16T05:29:35;20.40;;;13.60;;
78740;SDS011;68062;48.726;9.370;2023-05-16T05:32:02;18.67;;;14.07;;
78740;SDS011;68062;48.726;9.370;2023-05-16T05:34:28;19.13;;;13.93;;
78740;SDS011;68062;48.726;9.370;2023-05-16T05:36:55;19.93;;;15.00;;
78740;SDS011;68062;48.726;9.370;2023-05-16T05:39:23;26.33;;;14.07;;
78740;SDS011;68062;48.726;9.370;2023-05-16T05:41:51;20.70;;;15.53;;
78740;SDS011;68062;48.726;9.370;2023-05-16T05:44:18;27.20;;;16.97;;
78740;SDS011;68062;48.726;9.370;2023-05-16T05:46:44;27.93;;;18.10;;
78740;SDS011;68062;48.726;9.370;2023-05-16T05:49:11;26.93;;;18.53;;
78740;SDS011;68062;48.726;9.370;2023-05-16T05:51:38;35.03;;;22.57;;
78740;SDS011;68062;48.726;9.370;2023-05-16T05:54:04;45.73;;;28.40;;
78740;SDS011;68062;48.726;9.370;2023-05-16T05:56:31;45.10;;;29.40;;
78740;SDS011;68062;48.726;9.370;2023-05-16T05:58:59;54.20;;;28.73;;
78740;SDS011;68062;48.726;9.370;2023-05-16T06:01:26;47.10;;;28.33;;
78740;SDS011;68062;48.726;9.370;2023-05-16T06:03:52;45.93;;;27.67;;
78740;SDS011;68062;48.726;9.370;2023-05-16T06:06:19;46.80;;;28.57;;
78740;SDS011;68062;48.726;9.370;2023-05-16T06:08:46;46.63;;;27.17;;
78740;SDS011;68062;48.726;9.370;2023-05-16T06:11:13;44.53;;;27.70;;
78740;SDS011;68062;48.726;9.370;2023-05-16T06:13:39;46.07;;;29.40;;
78740;SDS011;68062;48.726;9.370;2023-05-16T06:16:07;45.33;;;29.03;;
78740;SDS011;68062;48.726;9.370;2023-05-16T06:18:34;46.13;;;28.23;;
78740;SDS011;68062;48.726;9.370;2023-05-16T06:21:01;43.17;;;26.00;;
78740;SDS011;68062;48.726;9.370;2023-05-16T06:23:27;43.77;;;27.30;;
78740;SDS011;68062;48.726;9.370;2023-05-16T06:25:54;37.10;;;24.50;;
78740;SDS011;68062;48.726;9.370;2023-05-16T06:28:21;39.53;;;25.80;;
78740;SDS011;68062;48.726;9.370;2023-05-16T06:30:48;38.33;;;25.63;;
78740;SDS011;68062;48.726;9.370;2023-05-16T06:33:17;35.63;;;25.03;;
78740;SDS011;68062;48.726;9.370;2023-05-16T06:35:43;39.03;;;26.43;;
78740;SDS011;68062;48.726;9.370;2023-05-16T06:38:10;39.70;;;26.17;;
78740;SDS011;68062;48.726;9.370;2023-05-16T06:40:37;50.43;;;23.87;;
78740;SDS011;68062;48.726;9.370;2023-05-16T06:43:03;30.83;;;21.53;;
78740;SDS011;68062;48.726;9.370;2023-05-16T06:45:30;38.97;;;24.17;;
78740;SDS011;68062;48.726;9.370;2023-05-16T06:47:57;34.17;;;22.30;;
78740;SDS011;68062;48.726;9.370;2023-05-16T06:50:25;32.70;;;21.60;;
78740;SDS011;68062;48.726;9.370;2023-05-16T06:52:51;31.73;;;20.97;;
78740;SDS011;68062;48.726;9.370;2023-05-16T06:55:18;32.50;;;22.00;;
78740;SDS011;68062;48.726;9.370;2023-05-16T06:57:44;28.70;;;21.07;;
78740;SDS011;68062;48.726;9.370;2023-05-16T07:00:12;29.47;;;21.40;;
78740;SDS011;68062;48.726;9.370;2023-05-16T07:02:41;29.63;;;20.60;;
78740;SDS011;68062;48.726;9.370;2023-05-16T07:05:08;27.50;;;19.50;;
78740;SDS011;68062;48.726;9.370;2023-05-16T07:07:36;29.47;;;20.00;;
78740;SDS011;68062;48.726;9.370;2023-05-16T07:10:02;23.63;;;17.90;;
78740;SDS011;68062;48.726;9.370;2023-05-16T07:12:31;23.63;;;18.93;;
78740;SDS011;68062;48.726;9.370;2023-05-16T07:14:57;21.43;;;17.87;;
78740;SDS011;68062;48.726;9.370;2023-05-16T07:17:25;30.27;;;18.97;;
78740;SDS011;68062;48.726;9.370;2023-05-16T07:19:51;22.40;;;15.73;;
78740;SDS011;68062;48.726;9.370;2023-05-16T07:22:18;26.47;;;17.30;;
78740;SDS011;68062;48.726;9.370;2023-05-16T07:24:46;25.80;;;17.53;;
78740;SDS011;68062;48.726;9.370;2023-05-16T07:27:12;24.63;;;17.33;;
78740;SDS011;68062;48.726;9.370;2023-05-16T07:29:39;22.53;;;16.13;;
78740;SDS011;68062;48.726;9.370;2023-05-16T07:32:07;24.30;;;16.20;;
78740;SDS011;68062;48.726;9.370;2023-05-16T07:34:33;23.80;;;15.70;;
78740;SDS011;68062;48.726;9.370;2023-05-16T07:37:00;20.70;;;15.67;;
78740;SDS011;68062;48.726;9.370;2023-05-16T07:39:27;20.90;;;15.40;;
78740;SDS011;68062;48.726;9.370;2023-05-16T07:41:56;18.87;;;14.43;;
78740;SDS011;68062;48.726;9.370;2023-05-16T07:44:22;17.87;;;13.40;;
78740;SDS011;68062;48.726;9.370;2023-05-16T07:46:49;17.77;;;12.30;;
78740;SDS011;68062;48.726;9.370;2023-05-16T07:49:15;15.90;;;13.00;;
78740;SDS011;68062;48.726;9.370;2023-05-16T07:51:42;17.07;;;13.03;;
78740;SDS011;68062;48.726;9.370;2023-05-16T07:54:09;16.37;;;12.77;;
78740;SDS011;68062;48.726;9.370;2023-05-16T07:56:36;16.43;;;12.17;;
78740;SDS011;68062;48.726;9.370;2023-05-16T07:59:04;14.10;;;11.63;;
78740;SDS011;68062;48.726;9.370;2023-05-16T08:01:31;18.83;;;13.10;;
78740;SDS011;68062;48.726;9.370;2023-05-16T08:03:58;14.30;;;11.30;;
78740;SDS011;68062;48.726;9.370;2023-05-16T08:06:25;17.20;;;12.40;;
78740;SDS011;68062;48.726;9.370;2023-05-16T08:08:51;15.13;;;12.97;;
78740;SDS011;68062;48.726;9.370;2023-05-16T08:11:18;18.70;;;13.57;;
78740;SDS011;68062;48.726;9.370;2023-05-16T08:13:46;19.83;;;15.67;;
78740;SDS011;68062;48.726;9.370;2023-05-16T08:16:14;19.37;;;15.17;;
78740;SDS011;68062;48.726;9.370;2023-05-16T08:18:41;20.73;;;16.13;;
78740;SDS011;68062;48.726;9.370;2023-05-16T08:21:08;19.80;;;14.87;;
78740;SDS011;68062;48.726;9.370;2023-05-16T08:23:35;18.93;;;14.37;;
78740;SDS011;68062;48.726;9.370;2023-05-16T08:26:02;17.10;;;13.90;;
78740;SDS011;68062;48.726;9.370;2023-05-16T08:28:29;21.20;;;14.23;;
78740;SDS011;68062;48.726;9.370;2023-05-16T08:30:56;20.23;;;15.07;;
78740;SDS011;68062;48.726;9.370;2023-05-16T08:33:25;16.47;;;12.00;;
78740;SDS011;68062;48.726;9.370;2023-05-16T08:35:52;17.73;;;12.20;;
78740;SDS011;68062;48.726;9.370;2023-05-16T08:38:18;18.80;;;14.37;;
78740;SDS011;68062;48.726;9.370;2023-05-16T08:40:45;16.30;;;12.30;;
78740;SDS011;68062;48.726;9.370;2023-05-16T08:43:12;16.73;;;12.30;;
78740;SDS011;68062;48.726;9.370;2023-05-16T08:45:39;15.83;;;13.37;;
78740;SDS011;68062;48.726;9.370;2023-05-16T08:48:06;18.47;;;14.77;;
78740;SDS011;68062;48.726;9.370;2023-05-16T08:50:36;15.67;;;12.63;;
78740;SDS011;68062;48.726;9.370;2023-05-16T08:53:04;16.07;;;13.70;;
78740;SDS011;68062;48.726;9.370;2023-05-16T08:55:33;16.90;;;13.77;;
78740;SDS011;68062;48.726;9.370;2023-05-16T08:58:01;19.67;;;14.70;;
78740;SDS011;68062;48.726;9.370;2023-05-16T09:00:28;18.03;;;14.40;;
78740;SDS011;68062;48.726;9.370;2023-05-16T09:02:56;20.37;;;14.33;;
78740;SDS011;68062;48.726;9.370;2023-05-16T09:05:23;19.30;;;13.37;;
78740;SDS011;68062;48.726;9.370;2023-05-16T09:07:52;17.17;;;12.33;;
78740;SDS011;68062;48.726;9.370;2023-05-16T09:10:18;19.20;;;13.70;;
78740;SDS011;68062;48.726;9.370;2023-05-16T09:12:46;18.80;;;14.00;;
78740;SDS011;68062;48.726;9.370;2023-05-16T09:15:13;18.40;;;13.10;;
78740;SDS011;68062;48.726;9.370;2023-05-16T09:17:42;15.47;;;12.63;;
78740;SDS011;68062;48.726;9.370;2023-05-16T09:20:10;17.10;;;12.63;;
78740;SDS011;68062;48.726;9.370;2023-05-16T09:22:39;17.77;;;12.60;;
78740;SDS011;68062;48.726;9.370;2023-05-16T09:25:16;14.93;;;12.10;;
78740;SDS011;68062;48.726;9.370;2023-05-16T09:27:45;15.27;;;11.53;;
78740;SDS011;68062;48.726;9.370;2023-05-16T09:30:13;19.53;;;13.27;;
78740;SDS011;68062;48.726;9.370;2023-05-16T09:32:42;18.57;;;12.23;;
78740;SDS011;68062;48.726;9.370;2023-05-16T09:35:10;17.80;;;12.37;;
78740;SDS011;68062;48.726;9.370;2023-05-16T09:37:58;17.90;;;12.97;;
78740;SDS011;68062;48.726;9.370;2023-05-16T09:40:26;16.10;;;11.83;;
78740;SDS011;68062;48.726;9.370;2023-05-16T09:42:53;15.90;;;12.50;;
78740;SDS011;68062;48.726;9.370;2023-05-16T09:45:27;15.00;;;12.43;;
78740;SDS011;68062;48.726;9.370;2023-05-16T09:47:57;18.87;;;12.77;;
78740;SDS011;68062;48.726;9.370;2023-05-16T09:50:26;18.93;;;13.90;;
78740;SDS011;68062;48.726;9.370;2023-05-16T09:52:53;18.20;;;13.50;;
78740;SDS011;68062;48.726;9.370;2023-05-16T09:55:20;18.77;;;14.70;;
78740;SDS011;68062;48.726;9.370;2023-05-16T09:57:50;17.13;;;12.17;;
78740;SDS011;68062;48.726;9.370;2023-05-16T10:00:17;16.70;;;12.63;;
78740;SDS011;68062;48.726;9.370;2023-05-16T10:02:44;18.33;;;13.00;;
78740;SDS011;68062;48.726;9.370;2023-05-16T10:05:12;19.30;;;12.73;;
78740;SDS011;68062;48.726;9.370;2023-05-16T10:07:40;16.50;;;11.73;;
78740;SDS011;68062;48.726;9.370;2023-05-16T10:10:09;17.67;;;13.77;;
78740;SDS011;68062;48.726;9.370;2023-05-16T10:12:38;20.20;;;14.67;;
78740;SDS011;68062;48.726;9.370;2023-05-16T10:15:08;18.87;;;14.07;;
78740;SDS011;68062;48.726;9.370;2023-05-16T10:17:35;18.90;;;13.50;;
78740;SDS011;68062;48.726;9.370;2023-05-16T10:20:06;22.27;;;15.23;;
78740;SDS011;68062;48.726;9.370;2023-05-16T10:22:35;18.10;;;14.27;;
78740;SDS011;68062;48.726;9.370;2023-05-16T10:25:08;17.20;;;13.53;;
78740;SDS011;68062;48.726;9.370;2023-05-16T10:27:40;21.77;;;16.47;;
78740;SDS011;68062;48.726;9.370;2023-05-16T10:30:10;20.43;;;16.03;;
78740;SDS011;68062;48.726;9.370;2023-05-16T10:32:38;21.77;;;14.30;;
78740;SDS011;68062;48.726;9.370;2023-05-16T10:35:05;19.20;;;14.20;;
78740;SDS011;68062;48.726;9.370;2023-05-16T10:37:33;20.33;;;14.30;;
78740;SDS011;68062;48.726;9.370;2023-05-16T10:40:01;20.23;;;13.17;;
78740;SDS011;68062;48.726;9.370;2023-05-16T10:42:30;22.57;;;16.83;;
78740;SDS011;68062;48.726;9.370;2023-05-16T10:45:05;20.30;;;15.03;;
78740;SDS011;68062;48.726;9.370;2023-05-16T10:47:45;23.27;;;16.43;;
78740;SDS011;68062;48.726;9.370;2023-05-16T10:50:29;21.40;;;16.00;;
78740;SDS011;68062;48.726;9.370;2023-05-16T10:53:00;22.03;;;15.83;;
78740;SDS011;68062;48.726;9.370;2023-05-16T10:55:38;26.20;;;15.50;;
78740;SDS011;68062;48.726;9.370;2023-05-16T10:58:04;20.10;;;15.73;;
78740;SDS011;68062;48.726;9.370;2023-05-16T11:00:33;23.57;;;15.53;;
78740;SDS011;68062;48.726;9.370;2023-05-16T11:03:03;25.50;;;16.50;;
78740;SDS011;68062;48.726;9.370;2023-05-16T11:05:31;25.63;;;15.90;;
78740;SDS011;68062;48.726;9.370;2023-05-16T11:08:02;23.13;;;15.57;;
78740;SDS011;68062;48.726;9.370;2023-05-16T11:10:30;21.30;;;14.57;;
78740;SDS011;68062;48.726;9.370;2023-05-16T11:13:01;18.63;;;13.73;;
78740;SDS011;68062;48.726;9.370;2023-05-16T11:15:33;18.27;;;13.23;;
78740;SDS011;68062;48.726;9.370;2023-05-16T11:18:04;24.60;;;14.83;;
78740;SDS011;68062;48.726;9.370;2023-05-16T11:20:33;23.40;;;15.10;;
78740;SDS011;68062;48.726;9.370;2023-05-16T11:25:53;18.40;;;13.83;;
78740;SDS011;68062;48.726;9.370;2023-05-16T11:28:23;19.23;;;14.10;;
78740;SDS011;68062;48.726;9.370;2023-05-16T11:30:53;20.20;;;13.90;;
78740;SDS011;68062;48.726;9.370;2023-05-16T11:33:23;21.23;;;14.53;;
78740;SDS011;68062;48.726;9.370;2023-05-16T11:36:01;18.40;;;13.73;;
78740;SDS011;68062;48.726;9.370;2023-05-16T11:38:30;22.33;;;13.80;;
78740;SDS011;68062;48.726;9.370;2023-05-16T11:41:00;21.00;;;13.23;;
78740;SDS011;68062;48.726;9.370;2023-05-16T11:43:28;21.13;;;13.23;;
78740;SDS011;68062;48.726;9.370;2023-05-16T11:45:57;18.43;;;13.23;;
78740;SDS011;68062;48.726;9.370;2023-05-16T11:48:24;17.37;;;13.30;;
78740;SDS011;68062;48.726;9.370;2023-05-16T11:50:51;19.20;;;13.50;;
78740;SDS011;68062;48.726;9.370;2023-05-16T11:53:18;20.80;;;12.80;;
78740;SDS011;68062;48.726;9.370;2023-05-16T11:55:46;21.50;;;13.80;;
78740;SDS011;68062;48.726;9.370;2023-05-16T11:58:17;21.20;;;14.10;;
78740;SDS011;68062;48.726;9.370;2023-05-16T12:00:49;20.47;;;12.03;;
78740;SDS011;68062;48.726;9.370;2023-05-16T12:03:18;21.17;;;12.50;;
78740;SDS011;68062;48.726;9.370;2023-05-16T12:05:48;16.50;;;11.73;;
78740;SDS011;68062;48.726;9.370;2023-05-16T12:08:17;19.37;;;12.00;;
78740;SDS011;68062;48.726;9.370;2023-05-16T12:10:45;15.50;;;11.47;;
78740;SDS011;68062;48.726;9.370;2023-05-16T12:13:12;14.87;;;11.03;;
78740;SDS011;68062;48.726;9.370;2023-05-16T12:15:39;18.10;;;12.03;;
78740;SDS011;68062;48.726;9.370;2023-05-16T12:18:07;15.60;;;10.90;;
78740;SDS011;68062;48.726;9.370;2023-05-16T12:20:36;15.03;;;10.47;;
78740;SDS011;68062;48.726;9.370;2023-05-16T12:23:04;17.60;;;12.50;;
78740;SDS011;68062;48.726;9.370;2023-05-16T12:25:36;17.13;;;11.13;;
78740;SDS011;68062;48.726;9.370;2023-05-16T12:28:08;17.30;;;11.70;;
78740;SDS011;68062;48.726;9.370;2023-05-16T12:30:39;15.57;;;11.30;;
78740;SDS011;68062;48.726;9.370;2023-05-16T12:33:07;17.97;;;13.40;;
78740;SDS011;68062;48.726;9.370;2023-05-16T12:35:38;16.87;;;12.37;;
78740;SDS011;68062;48.726;9.370;2023-05-16T12:38:06;14.90;;;10.77;;
78740;SDS011;68062;48.726;9.370;2023-05-16T12:40:35;15.80;;;10.43;;
78740;SDS011;68062;48.726;9.370;2023-05-16T12:43:03;13.60;;;10.30;;
78740;SDS011;68062;48.726;9.370;2023-05-16T12:45:31;15.00;;;10.23;;
78740;SDS011;68062;48.726;9.370;2023-05-16T12:48:02;14.37;;;9.20;;
78740;SDS011;68062;48.726;9.370;2023-05-16T12:50:31;15.83;;;8.83;;
78740;SDS011;68062;48.726;9.370;2023-05-16T12:53:00;17.80;;;9.73;;
78740;SDS011;68062;48.726;9.370;2023-05-16T12:55:27;14.10;;;9.60;;
78740;SDS011;68062;48.726;9.370;2023-05-16T12:57:54;10.50;;;8.57;;
78740;SDS011;68062;48.726;9.370;2023-05-16T13:00:21;14.10;;;8.60;;
78740;SDS011;68062;48.726;9.370;2023-05-16T13:02:49;11.80;;;8.30;;
78740;SDS011;68062;48.726;9.370;2023-05-16T13:05:16;9.20;;;7.20;;
78740;SDS011;68062;48.726;9.370;2023-05-16T13:07:43;10.30;;;7.87;;
78740;SDS011;68062;48.726;9.370;2023-05-16T13:10:11;10.43;;;7.90;;
78740;SDS011;68062;48.726;9.370;2023-05-16T13:12:38;7.70;;;6.80;;
78740;SDS011;68062;48.726;9.370;2023-05-16T13:15:06;9.87;;;7.33;;
78740;SDS011;68062;48.726;9.370;2023-05-16T13:17:34;6.93;;;5.63;;
78740;SDS011;68062;48.726;9.370;2023-05-16T13:20:01;8.73;;;5.50;;
78740;SDS011;68062;48.726;9.370;2023-05-16T13:22:34;6.77;;;5.40;;
78740;SDS011;68062;48.726;9.370;2023-05-16T13:25:01;7.00;;;5.47;;
78740;SDS011;68062;48.726;9.370;2023-05-16T13:27:30;6.70;;;4.73;;
78740;SDS011;68062;48.726;9.370;2023-05-16T13:29:57;7.27;;;4.60;;
78740;SDS011;68062;48.726;9.370;2023-05-16T13:32:23;6.17;;;5.13;;
78740;SDS011;68062;48.726;9.370;2023-05-16T13:34:51;6.47;;;5.30;;
78740;SDS011;68062;48.726;9.370;2023-05-16T13:37:18;6.70;;;5.00;;
78740;SDS011;68062;48.726;9.370;2023-05-16T13:39:44;6.20;;;5.00;;
78740;SDS011;68062;48.726;9.370;2023-05-16T13:42:11;5.73;;;4.63;;
78740;SDS011;68062;48.726;9.370;2023-05-16T13:44:39;5.30;;;5.00;;
78740;SDS011;68062;48.726;9.370;2023-05-16T13:47:06;5.63;;;5.03;;
78740;SDS011;68062;48.726;9.370;2023-05-16T13:49:33;6.80;;;6.00;;
78740;SDS011;68062;48.726;9.370;2023-05-16T13:52:00;5.40;;;5.00;;
78740;SDS011;68062;48.726;9.370;2023-05-16T13:54:27;6.00;;;4.80;;
78740;SDS011;68062;48.726;9.370;2023-05-16T13:56:54;4.37;;;4.07;;
78740;SDS011;68062;48.726;9.370;2023-05-16T13:59:21;5.53;;;5.13;;
78740;SDS011;68062;48.726;9.370;2023-05-16T14:01:49;4.90;;;4.40;;
78740;SDS011;68062;48.726;9.370;2023-05-16T14:04:16;5.53;;;5.23;;
78740;SDS011;68062;48.726;9.370;2023-05-16T14:06:42;5.07;;;4.87;;
78740;SDS011;68062;48.726;9.370;2023-05-16T14:09:09;4.60;;;4.30;;
78740;SDS011;68062;48.726;9.370;2023-05-16T14:11:37;5.30;;;5.00;;
78740;SDS011;68062;48.726;9.370;2023-05-16T14:14:03;5.43;;;5.13;;
78740;SDS011;68062;48.726;9.370;2023-05-16T14:16:30;4.90;;;4.50;;
78740;SDS011;68062;48.726;9.370;2023-05-16T14:18:59;4.60;;;4.30;;
78740;SDS011;68062;48.726;9.370;2023-05-16T14:21:25;5.30;;;5.00;;
78740;SDS011;68062;48.726;9.370;2023-05-16T14:23:52;4.97;;;4.40;;
78740;SDS011;68062;48.726;9.370;2023-05-16T14:26:19;4.07;;;3.87;;
78740;SDS011;68062;48.726;9.370;2023-05-16T14:28:49;4.60;;;3.73;;
78740;SDS011;68062;48.726;9.370;2023-05-16T14:31:16;4.03;;;3.83;;
78740;SDS011;68062;48.726;9.370;2023-05-16T14:33:43;4.83;;;4.53;;